createdAt,value
2022-11-22T00:01:59.179Z,100.00
2022-11-22T00:04:29.631Z,100.00
2022-11-22T00:07:00.760Z,100.00
2022-11-22T00:09:34.231Z,100.00
2022-11-22T00:12:04.693Z,100.00
2022-11-22T00:14:35.109Z,100.00
2022-11-22T00:17:05.472Z,100.00
2022-11-22T00:19:36.142Z,100.00
2022-11-22T00:22:06.598Z,100.00
2022-11-22T00:24:39.688Z,100.00
2022-11-22T00:27:10.024Z,100.00
2022-11-22T00:29:40.392Z,100.00
2022-11-22T00:32:10.773Z,100.00
2022-11-22T00:34:41.178Z,100.00
2022-11-22T00:37:11.708Z,99.82
2022-11-22T00:39:44.928Z,99.32
2022-11-22T00:42:15.414Z,99.08
2022-11-22T00:44:45.794Z,98.79
2022-11-22T00:47:16.277Z,98.66
2022-11-22T00:49:46.841Z,98.60
2022-11-22T00:52:17.551Z,98.81
2022-11-22T00:54:54.835Z,98.86
2022-11-22T00:57:25.904Z,98.94
2022-11-22T00:59:56.366Z,98.42
2022-11-22T01:02:26.736Z,98.72
2022-11-22T01:04:57.165Z,98.91
2022-11-22T01:07:27.661Z,99.07
2022-11-22T01:10:00.893Z,99.04
2022-11-22T01:12:31.208Z,99.22
2022-11-22T01:15:01.564Z,99.00
2022-11-22T01:17:32.085Z,99.04
2022-11-22T01:20:02.558Z,98.81
2022-11-22T01:22:33.581Z,98.48
2022-11-22T01:25:06.836Z,98.39
2022-11-22T01:27:37.381Z,98.13
2022-11-22T01:30:10.083Z,98.17
2022-11-22T01:32:40.492Z,97.83
2022-11-22T01:35:12.129Z,97.51
2022-11-22T01:37:42.440Z,96.87
2022-11-22T01:40:16.063Z,96.49
2022-11-22T01:42:51.123Z,96.21
2022-11-22T01:45:50.798Z,96.33
2022-11-22T01:48:39.065Z,96.88
2022-11-22T01:51:17.793Z,96.80
2022-11-22T01:53:48.769Z,96.71
2022-11-22T01:56:24.211Z,96.83
2022-11-22T01:59:00.976Z,96.54
2022-11-22T02:01:32.795Z,96.46
2022-11-22T02:04:06.521Z,96.43
2022-11-22T02:06:42.857Z,96.18
2022-11-22T02:09:15.374Z,95.99
2022-11-22T02:11:53.560Z,95.68
2022-11-22T02:14:29.338Z,95.44
2022-11-22T02:17:00.167Z,95.39
2022-11-22T02:19:43.106Z,95.35
2022-11-22T02:22:30.489Z,95.40
2022-11-22T02:25:12.281Z,95.17
2022-11-22T02:27:45.482Z,94.70
2022-11-22T02:30:16.654Z,94.41
2022-11-22T02:32:47.680Z,94.10
2022-11-22T02:35:24.010Z,93.93
2022-11-22T02:37:59.882Z,93.63
2022-11-22T02:40:34.586Z,93.25
2022-11-22T02:43:11.451Z,93.46
2022-11-22T02:45:42.038Z,93.46
2022-11-22T02:48:15.058Z,93.57
2022-11-22T02:50:46.214Z,93.28
2022-11-22T02:53:17.479Z,93.09
2022-11-22T02:55:47.950Z,93.00
2022-11-22T02:58:20.974Z,92.68
2022-11-22T03:00:51.396Z,92.61
2022-11-22T03:03:21.837Z,92.55
2022-11-22T03:05:52.291Z,92.86
2022-11-22T03:08:22.890Z,92.45
2022-11-22T03:10:53.398Z,91.63
2022-11-22T03:13:26.520Z,91.74
2022-11-22T03:15:56.986Z,91.64
2022-11-22T03:18:29.171Z,91.09
2022-11-22T03:20:59.537Z,90.69
2022-11-22T03:23:29.912Z,90.67
2022-11-22T03:26:00.856Z,91.01
2022-11-22T03:28:34.269Z,90.89
2022-11-22T03:31:04.584Z,90.79
2022-11-22T03:33:34.937Z,90.67
2022-11-22T03:36:06.470Z,90.76
2022-11-22T03:38:38.201Z,90.62
2022-11-22T03:41:08.634Z,90.60
2022-11-22T03:43:41.721Z,90.63
2022-11-22T03:46:19.654Z,90.58
2022-11-22T03:48:50.088Z,90.54
2022-11-22T03:51:20.861Z,90.25
2022-11-22T03:53:51.254Z,89.94
2022-11-22T03:56:21.573Z,89.71
2022-11-22T03:58:54.498Z,89.69
2022-11-22T04:01:24.923Z,89.52
2022-11-22T04:03:55.338Z,89.67
2022-11-22T04:06:25.758Z,89.70
2022-11-22T04:08:56.259Z,89.75
2022-11-22T04:11:27.298Z,89.58
2022-11-22T04:14:12.955Z,89.45
2022-11-22T04:16:43.299Z,89.17
2022-11-22T04:19:13.868Z,89.03
2022-11-22T04:21:41.783Z,89.24
2022-11-22T04:24:26.777Z,89.52
2022-11-22T04:26:58.176Z,89.50
2022-11-22T04:29:31.629Z,89.55
2022-11-22T04:32:14.634Z,89.46
2022-11-22T04:34:45.070Z,88.97
2022-11-22T04:37:15.340Z,88.79
2022-11-22T04:39:45.682Z,88.68
2022-11-22T04:42:28.345Z,88.23
2022-11-22T04:45:01.398Z,88.53
2022-11-22T04:47:49.957Z,88.65
2022-11-22T04:50:33.316Z,88.25
2022-11-22T04:53:03.716Z,88.22
2022-11-22T04:55:34.164Z,88.41
2022-11-22T04:58:05.100Z,87.87
2022-11-22T05:00:38.467Z,87.96
2022-11-22T05:03:09.874Z,87.43
2022-11-22T05:05:42.743Z,87.47
2022-11-22T05:08:13.801Z,87.92
2022-11-22T05:10:56.917Z,88.43
2022-11-22T05:13:30.689Z,88.81
2022-11-22T05:16:05.748Z,89.05
2022-11-22T05:18:36.678Z,88.56
2022-11-22T05:21:09.075Z,89.31
2022-11-22T05:23:51.900Z,88.53
2022-11-22T05:26:22.742Z,88.32
2022-11-22T05:28:53.230Z,88.51
2022-11-22T05:31:28.388Z,88.47
2022-11-22T05:34:00.401Z,88.53
2022-11-22T05:36:30.936Z,88.43
2022-11-22T05:39:01.488Z,88.75
2022-11-22T05:41:31.919Z,88.13
2022-11-22T05:44:02.372Z,88.53
2022-11-22T05:46:35.450Z,88.89
2022-11-22T05:49:05.814Z,89.14
2022-11-22T05:51:36.193Z,89.76
2022-11-22T05:54:07.342Z,90.43
2022-11-22T05:56:37.817Z,90.55
2022-11-22T05:59:08.283Z,90.72
2022-11-22T06:01:41.368Z,91.57
2022-11-22T06:04:11.778Z,91.99
2022-11-22T06:06:42.266Z,92.43
2022-11-22T06:09:12.740Z,92.75
2022-11-22T06:11:43.228Z,92.70
2022-11-22T06:14:13.682Z,92.61
2022-11-22T06:16:46.960Z,93.04
2022-11-22T06:19:17.295Z,92.84
2022-11-22T06:21:47.765Z,92.63
2022-11-22T06:24:18.550Z,92.27
2022-11-22T06:26:48.976Z,92.29
2022-11-22T06:29:19.433Z,92.13
2022-11-22T06:31:52.430Z,91.67
2022-11-22T06:34:22.766Z,91.70
2022-11-22T06:36:53.121Z,92.57
2022-11-22T06:39:23.500Z,92.75
2022-11-22T06:41:53.882Z,92.95
2022-11-22T06:44:24.260Z,92.99
2022-11-22T06:46:57.217Z,92.91
2022-11-22T06:49:27.899Z,92.92
2022-11-22T06:51:58.535Z,92.94
2022-11-22T06:54:29.094Z,92.67
2022-11-22T06:56:59.561Z,92.51
2022-11-22T06:59:30.096Z,93.18
2022-11-22T07:02:06.643Z,92.89
2022-11-22T07:04:50.921Z,92.94
2022-11-22T07:07:27.827Z,93.06
2022-11-22T07:09:58.238Z,92.36
2022-11-22T07:12:29.173Z,92.05
2022-11-22T07:14:59.599Z,91.55
2022-11-22T07:17:32.604Z,91.54
2022-11-22T07:20:02.933Z,91.97
2022-11-22T07:22:33.368Z,91.77
2022-11-22T07:25:03.725Z,91.55
2022-11-22T07:27:34.355Z,91.54
2022-11-22T07:30:04.837Z,90.75
2022-11-22T07:32:37.821Z,90.66
2022-11-22T07:35:09.984Z,90.71
2022-11-22T07:37:40.355Z,90.38
2022-11-22T07:40:13.666Z,90.56
2022-11-22T07:42:44.023Z,90.38
2022-11-22T07:45:14.929Z,90.28
2022-11-22T07:47:47.983Z,90.23
2022-11-22T07:50:18.852Z,89.68
2022-11-22T07:52:49.283Z,89.39
2022-11-22T07:55:19.896Z,88.77
2022-11-22T07:57:50.307Z,88.74
2022-11-22T08:00:21.533Z,88.59
2022-11-22T08:02:54.440Z,88.63
2022-11-22T08:05:25.101Z,88.71
2022-11-22T08:07:57.336Z,88.26
2022-11-22T08:10:27.734Z,87.52
2022-11-22T08:13:02.942Z,87.43
2022-11-22T08:15:33.371Z,86.73
2022-11-22T08:18:06.412Z,86.25
2022-11-22T08:20:36.770Z,85.61
2022-11-22T08:23:07.172Z,85.51
2022-11-22T08:25:37.659Z,84.82
2022-11-22T08:28:08.658Z,84.89
2022-11-22T08:30:39.094Z,84.14
2022-11-22T08:33:12.141Z,83.92
2022-11-22T08:35:43.640Z,83.32
2022-11-22T08:38:14.152Z,83.45
2022-11-22T08:40:45.525Z,82.94
2022-11-22T08:43:16.005Z,82.03
2022-11-22T08:45:46.404Z,81.66
2022-11-22T08:48:22.456Z,81.77
2022-11-22T08:50:54.749Z,81.30
2022-11-22T08:53:25.273Z,81.49
2022-11-22T08:55:56.389Z,81.98
2022-11-22T08:58:26.871Z,81.91
2022-11-22T09:00:57.424Z,81.46
2022-11-22T09:03:30.504Z,81.05
2022-11-22T09:09:15.030Z,79.87
2022-11-22T09:11:47.016Z,79.28
2022-11-22T09:14:17.836Z,79.39
2022-11-22T09:16:48.257Z,79.54
2022-11-22T09:19:21.459Z,79.61
2022-11-22T09:21:51.862Z,80.14
2022-11-22T09:24:22.355Z,80.33
2022-11-22T09:26:52.850Z,79.84
2022-11-22T09:29:23.331Z,80.08
2022-11-22T09:31:56.170Z,79.87
2022-11-22T09:34:29.203Z,80.18
2022-11-22T09:36:59.574Z,80.53
2022-11-22T09:39:30.135Z,81.06
2022-11-22T09:42:35.783Z,80.81
2022-11-22T09:45:41.684Z,80.64
2022-11-22T09:48:45.735Z,80.76
2022-11-22T09:51:24.746Z,80.83
2022-11-22T09:53:59.151Z,80.71
2022-11-22T09:56:32.778Z,80.85
2022-11-22T09:59:09.572Z,81.65
2022-11-22T10:01:47.132Z,81.16
2022-11-22T10:04:24.018Z,81.35
2022-11-22T10:07:00.519Z,81.39
2022-11-22T10:09:41.852Z,81.17
2022-11-22T10:12:15.481Z,81.03
2022-11-22T10:14:55.400Z,81.45
2022-11-22T10:17:41.948Z,82.00
2022-11-22T10:20:19.317Z,82.82
2022-11-22T10:22:52.975Z,82.95
2022-11-22T10:25:25.482Z,83.12
2022-11-22T10:28:01.423Z,83.29
2022-11-22T10:30:39.042Z,83.52
2022-11-22T10:33:20.214Z,83.05
2022-11-22T10:36:14.185Z,83.10
2022-11-22T10:39:24.392Z,83.37
2022-11-22T10:42:33.139Z,83.15
2022-11-22T10:45:15.299Z,82.70
2022-11-22T10:48:05.004Z,82.21
2022-11-22T10:50:49.166Z,81.83
2022-11-22T10:53:33.911Z,81.56
2022-11-22T10:56:14.875Z,82.70
2022-11-22T10:59:02.219Z,82.70
2022-11-22T11:01:43.129Z,82.84
2022-11-22T11:04:15.749Z,82.94
2022-11-22T11:07:11.147Z,82.66
2022-11-22T11:12:47.685Z,81.03
2022-11-22T11:15:25.071Z,80.27
2022-11-22T11:18:03.218Z,79.35
2022-11-22T11:20:40.297Z,78.28
2022-11-22T11:23:15.219Z,74.98
2022-11-22T11:25:48.488Z,70.72
2022-11-22T11:28:25.691Z,69.02
2022-11-22T11:30:59.797Z,69.60
2022-11-22T11:33:32.822Z,71.07
2022-11-22T11:36:09.793Z,73.58
2022-11-22T11:38:53.962Z,74.50
2022-11-22T11:41:31.519Z,75.18
2022-11-22T11:44:07.283Z,76.44
2022-11-22T11:46:49.280Z,77.62
2022-11-22T11:49:22.419Z,78.28
2022-11-22T11:51:58.961Z,78.23
2022-11-22T11:54:43.105Z,78.84
2022-11-22T11:57:17.450Z,79.64
2022-11-22T11:59:53.443Z,79.81
2022-11-22T12:02:26.967Z,81.02
2022-11-22T12:05:00.666Z,80.75
2022-11-22T12:07:43.872Z,81.25
2022-11-22T12:10:41.217Z,81.94
2022-11-22T12:13:21.539Z,82.11
2022-11-22T12:16:04.883Z,82.54
2022-11-22T12:18:46.476Z,83.78
2022-11-22T12:21:27.237Z,84.28
2022-11-22T12:26:58.000Z,85.65
2022-11-22T12:29:28.767Z,86.20
2022-11-22T12:32:07.946Z,86.65
2022-11-22T12:34:48.474Z,87.28
2022-11-22T12:37:23.854Z,87.36
2022-11-22T12:39:59.763Z,86.83
2022-11-22T12:42:35.377Z,86.52
2022-11-22T12:45:14.467Z,86.40
2022-11-22T12:47:50.696Z,86.65
2022-11-22T12:48:23.806Z,85.01
2022-11-22T12:50:31.388Z,86.75
2022-11-22T12:53:06.897Z,87.21
2022-11-22T12:55:48.269Z,86.98
2022-11-22T12:58:36.690Z,86.97
2022-11-22T13:01:19.852Z,87.40
2022-11-22T13:04:00.202Z,87.50
2022-11-22T13:06:45.770Z,87.63
2022-11-22T13:09:22.188Z,88.00
2022-11-22T13:11:59.209Z,87.95
2022-11-22T13:14:37.248Z,87.27
2022-11-22T13:17:10.737Z,86.56
2022-11-22T13:19:49.380Z,86.01
2022-11-22T13:22:32.212Z,85.48
2022-11-22T13:25:30.299Z,84.93
2022-11-22T13:28:02.898Z,84.57
2022-11-22T13:30:41.560Z,84.63
2022-11-22T13:33:28.093Z,84.21
2022-11-22T13:36:39.206Z,83.56
2022-11-22T13:39:16.778Z,83.40
2022-11-22T13:41:56.733Z,83.18
2022-11-22T13:45:08.578Z,83.20
2022-11-22T13:47:44.933Z,83.58
2022-11-22T13:51:05.706Z,83.67
2022-11-22T13:53:42.836Z,83.54
2022-11-22T13:56:57.497Z,84.16
2022-11-22T13:59:28.069Z,84.54
2022-11-22T14:02:02.696Z,84.73
2022-11-22T14:04:46.319Z,85.18
2022-11-22T14:07:38.922Z,84.96
2022-11-22T14:10:32.677Z,84.64
2022-11-22T14:13:26.738Z,84.60
2022-11-22T14:16:10.608Z,84.60
2022-11-22T14:18:56.650Z,84.62
2022-11-22T14:21:57.370Z,84.89
2022-11-22T14:24:54.047Z,85.25
2022-11-22T14:27:39.695Z,85.25
2022-11-22T14:30:22.256Z,85.42
2022-11-22T14:33:00.365Z,85.85
2022-11-22T14:35:37.026Z,86.14
2022-11-22T14:38:41.773Z,86.38
2022-11-22T14:41:48.848Z,86.38
2022-11-22T14:44:30.617Z,86.58
2022-11-22T14:47:09.274Z,86.72
2022-11-22T14:49:48.210Z,86.82
2022-11-22T14:52:24.797Z,86.77
2022-11-22T14:55:00.310Z,86.99
2022-11-22T14:57:34.262Z,87.44
2022-11-22T15:00:24.599Z,88.31
2022-11-22T15:03:23.434Z,88.79
2022-11-22T15:09:22.946Z,89.39
2022-11-22T15:09:45.066Z,90.13
2022-11-22T15:12:36.651Z,90.35
2022-11-22T15:57:34.122Z,93.38
2022-11-22T16:00:05.721Z,93.68
2022-11-22T16:02:42.868Z,94.03
2022-11-22T16:06:03.318Z,94.04
2022-11-22T16:08:08.760Z,94.02
2022-11-22T16:10:42.686Z,93.30
2022-11-22T16:13:28.618Z,92.81
2022-11-22T16:16:23.564Z,93.03
2022-11-22T16:18:54.583Z,93.13
2022-11-22T16:21:31.827Z,92.55
2022-11-22T16:24:17.738Z,92.35
2022-11-22T16:26:58.982Z,92.43
2022-11-22T16:29:32.669Z,92.70
2022-11-22T16:32:06.680Z,92.75
2022-11-22T16:34:37.597Z,92.38
2022-11-22T16:37:37.815Z,92.53
2022-11-22T16:40:14.114Z,92.49
2022-11-22T16:42:45.541Z,92.22
2022-11-22T16:45:20.053Z,91.87
2022-11-22T16:48:03.841Z,91.48
2022-11-22T16:50:42.689Z,90.98
2022-11-22T16:53:19.474Z,91.28
2022-11-22T16:55:50.341Z,92.15
2022-11-22T16:58:23.524Z,93.18
2022-11-22T17:00:56.280Z,93.06
2022-11-22T17:03:32.011Z,93.32
2022-11-22T17:06:02.624Z,93.43
2022-11-22T17:08:35.742Z,93.34
2022-11-22T17:11:06.162Z,93.07
2022-11-22T17:13:36.601Z,93.66
2022-11-22T17:16:08.412Z,93.42
2022-11-22T17:18:39.194Z,93.40
2022-11-22T17:21:19.797Z,92.63
2022-11-22T17:23:53.297Z,92.74
2022-11-22T17:26:23.958Z,92.61
2022-11-22T17:28:54.396Z,92.08
2022-11-22T17:31:26.037Z,91.69
2022-11-22T17:33:58.909Z,91.30
2022-11-22T17:36:32.712Z,91.07
2022-11-22T17:39:08.135Z,90.69
2022-11-22T17:41:38.606Z,90.87
2022-11-22T17:44:09.857Z,90.87
2022-11-22T17:46:41.200Z,90.52
2022-11-22T17:49:15.733Z,90.16
2022-11-22T17:51:47.317Z,90.23
2022-11-22T17:54:20.471Z,89.80
2022-11-22T17:56:51.011Z,90.25
2022-11-22T17:59:21.491Z,90.26
2022-11-22T18:01:51.979Z,90.22
2022-11-22T18:04:22.438Z,90.12
2022-11-22T18:06:52.860Z,90.01
2022-11-22T18:09:25.924Z,90.06
2022-11-22T18:11:56.739Z,89.83
2022-11-22T18:14:28.319Z,89.97
2022-11-22T18:17:00.522Z,90.68
2022-11-22T18:19:31.290Z,90.57
2022-11-22T18:22:01.985Z,90.91
2022-11-22T18:24:35.655Z,90.08
2022-11-22T18:27:06.299Z,90.01
2022-11-22T18:29:53.477Z,90.11
2022-11-22T18:32:24.038Z,90.41
2022-11-22T18:34:54.334Z,90.50
2022-11-22T18:37:25.589Z,90.52
2022-11-22T18:39:58.349Z,90.81
2022-11-22T18:42:28.869Z,90.85
2022-11-22T18:44:59.326Z,90.81
2022-11-22T18:47:29.649Z,90.41
2022-11-22T18:50:00.190Z,90.79
2022-11-22T18:52:34.410Z,90.20
2022-11-22T18:55:08.374Z,89.52
2022-11-22T18:57:38.959Z,89.31
2022-11-22T19:00:12.053Z,89.69
2022-11-22T19:02:42.462Z,88.98
2022-11-22T19:05:13.363Z,88.74
2022-11-22T19:07:43.886Z,88.48
2022-11-22T19:10:17.532Z,88.46
2022-11-22T19:12:47.895Z,88.41
2022-11-22T19:15:18.596Z,88.48
2022-11-22T19:17:49.022Z,88.52
2022-11-22T19:20:47.340Z,88.61
2022-11-22T19:23:10.371Z,88.69
2022-11-22T19:25:44.914Z,88.83
2022-11-22T19:28:15.300Z,88.70
2022-11-22T19:30:45.934Z,88.26
2022-11-22T19:33:17.303Z,87.97
2022-11-22T19:35:59.434Z,87.45
2022-11-22T19:38:31.318Z,87.18
2022-11-22T19:41:04.470Z,86.93
2022-11-22T19:43:34.909Z,87.19
2022-11-22T19:46:05.334Z,86.34
2022-11-22T19:48:36.663Z,86.36
2022-11-22T19:51:10.593Z,85.86
2022-11-22T19:53:42.089Z,85.52
2022-11-22T19:56:17.966Z,85.48
2022-11-22T19:58:54.207Z,85.44
2022-11-22T20:01:26.686Z,85.51
2022-11-22T20:04:00.445Z,86.25
2022-11-22T20:06:31.704Z,86.35
2022-11-22T20:09:05.599Z,85.94
2022-11-22T20:11:39.673Z,85.51
2022-11-22T20:14:11.161Z,84.96
2022-11-22T20:16:43.397Z,84.78
2022-11-22T20:19:15.417Z,84.66
2022-11-22T20:21:49.563Z,84.59
2022-11-22T20:24:19.968Z,84.48
2022-11-22T20:26:53.136Z,84.44
2022-11-22T20:29:25.008Z,84.39
2022-11-22T20:31:56.678Z,84.37
2022-11-22T20:34:29.784Z,84.74
2022-11-22T20:37:02.092Z,84.80
2022-11-22T20:39:35.514Z,85.64
2022-11-22T20:42:32.951Z,86.24
2022-11-22T20:44:59.606Z,86.08
2022-11-22T20:47:30.052Z,85.58
2022-11-22T20:50:00.507Z,85.91
2022-11-22T20:52:31.266Z,85.93
2022-11-22T20:55:05.072Z,86.06
2022-11-22T20:57:38.639Z,85.73
2022-11-22T21:00:11.174Z,86.20
2022-11-22T21:02:41.590Z,86.51
2022-11-22T21:05:13.293Z,86.63
2022-11-22T21:07:43.729Z,86.23
2022-11-22T21:10:14.167Z,86.38
2022-11-22T21:12:47.216Z,86.25
2022-11-22T21:15:19.168Z,86.21
2022-11-22T21:18:09.572Z,86.34
2022-11-22T21:20:40.738Z,86.26
2022-11-22T21:23:11.172Z,86.27
2022-11-22T21:25:41.651Z,86.00
2022-11-22T21:28:14.737Z,86.05
2022-11-22T21:30:45.100Z,85.91
2022-11-22T21:33:15.526Z,86.21
2022-11-22T21:35:46.014Z,86.33
2022-11-22T21:38:16.766Z,86.50
2022-11-22T21:40:58.341Z,86.73
2022-11-22T21:43:38.793Z,86.19
2022-11-22T21:46:09.520Z,86.28
2022-11-22T21:48:39.943Z,86.12
2022-11-22T21:51:10.335Z,85.86
2022-11-22T21:53:40.695Z,85.62
2022-11-22T21:56:12.687Z,85.46
2022-11-22T21:58:46.272Z,85.40
2022-11-22T22:01:16.702Z,85.17
2022-11-22T22:03:47.276Z,85.13
2022-11-22T22:06:17.836Z,84.83
2022-11-22T22:08:48.490Z,84.54
2022-11-22T22:11:19.057Z,84.30
2022-11-22T22:13:52.291Z,84.30
2022-11-22T22:16:23.861Z,84.20
2022-11-22T22:18:54.317Z,84.11
2022-11-22T22:21:24.952Z,84.05
2022-11-22T22:23:55.812Z,83.97
2022-11-22T22:26:26.267Z,83.96
2022-11-22T22:28:59.704Z,84.16
2022-11-22T22:31:30.125Z,84.22
2022-11-22T22:34:00.946Z,84.73
2022-11-22T22:36:31.464Z,84.77
2022-11-22T22:39:01.948Z,85.15
2022-11-22T22:41:32.425Z,85.20
2022-11-22T22:44:05.977Z,85.34
2022-11-22T22:46:36.598Z,85.22
2022-11-22T22:49:07.830Z,85.48
2022-11-22T22:51:38.025Z,85.30
2022-11-22T22:54:08.673Z,85.37
2022-11-22T22:56:39.066Z,85.25
2022-11-22T22:59:12.319Z,85.20
2022-11-22T23:01:42.713Z,85.51
2022-11-22T23:04:13.182Z,85.59
2022-11-22T23:06:43.863Z,85.65
2022-11-22T23:09:15.699Z,85.89
2022-11-22T23:11:58.456Z,86.36
2022-11-22T23:14:32.520Z,86.51
2022-11-22T23:17:02.917Z,86.76
2022-11-22T23:19:33.709Z,86.86
2022-11-22T23:22:04.790Z,87.42
2022-11-22T23:24:36.132Z,87.76
2022-11-22T23:27:06.767Z,87.70
2022-11-22T23:29:39.841Z,87.79
2022-11-22T23:32:10.240Z,87.70
2022-11-22T23:34:40.640Z,87.61
2022-11-22T23:37:11.120Z,87.56
2022-11-22T23:39:41.605Z,87.58
2022-11-22T23:42:12.067Z,87.99
2022-11-22T23:44:45.079Z,88.08
2022-11-22T23:47:15.535Z,88.21
2022-11-22T23:49:45.925Z,88.62
2022-11-22T23:52:16.312Z,88.64
2022-11-22T23:54:46.734Z,88.34
2022-11-22T23:57:17.217Z,88.48
2022-11-22T23:59:50.312Z,88.50
